createdAt,value
2022-12-03T00:01:33.511Z,8.03
2022-12-03T00:04:05.427Z,8.45
2022-12-03T00:06:37.571Z,8.32
2022-12-03T00:09:08.911Z,8.18
2022-12-03T00:11:40.480Z,8.03
2022-12-03T00:14:12.431Z,8.70
2022-12-03T00:16:43.756Z,8.07
2022-12-03T00:19:15.042Z,9.13
2022-12-03T00:21:46.548Z,9.23
2022-12-03T00:24:18.188Z,10.38
2022-12-03T00:26:49.479Z,23.90
2022-12-03T00:29:20.781Z,20.50
2022-12-03T00:31:52.096Z,20.50
2022-12-03T00:34:24.113Z,20.63
2022-12-03T00:36:55.443Z,21.20
2022-12-03T00:39:26.747Z,20.70
2022-12-03T00:41:58.197Z,18.23
2022-12-03T00:44:30.164Z,18.50
2022-12-03T00:47:01.730Z,19.37
2022-12-03T00:52:04.265Z,17.95
2022-12-03T00:54:36.056Z,16.75
2022-12-03T00:57:07.643Z,15.93
2022-12-03T00:59:39.014Z,16.73
2022-12-03T01:02:10.503Z,15.63
2022-12-03T01:04:42.535Z,16.10
2022-12-03T01:07:15.110Z,15.93
2022-12-03T01:09:46.421Z,15.80
2022-12-03T01:12:17.685Z,17.60
2022-12-03T01:14:49.357Z,17.50
2022-12-03T01:17:20.595Z,15.18
2022-12-03T01:19:54.021Z,13.63
2022-12-03T01:22:25.523Z,13.45
2022-12-03T01:24:57.230Z,13.80
2022-12-03T01:27:28.804Z,12.77
2022-12-03T01:32:31.138Z,12.65
2022-12-03T01:35:02.370Z,12.70
2022-12-03T01:37:33.673Z,12.85
2022-12-03T01:40:06.288Z,12.20
2022-12-03T01:42:41.629Z,12.35
2022-12-03T01:45:22.836Z,12.60
2022-12-03T01:47:54.131Z,12.45
2022-12-03T01:50:35.924Z,12.37
2022-12-03T01:55:38.833Z,11.25
2022-12-03T01:58:14.583Z,11.00
2022-12-03T02:00:45.884Z,11.65
2022-12-03T02:03:26.477Z,10.47
2022-12-03T02:05:58.391Z,10.35
2022-12-03T02:08:36.873Z,10.60
2022-12-03T02:11:17.201Z,9.85
2022-12-03T02:13:50.299Z,10.05
2022-12-03T02:16:21.758Z,9.77
2022-12-03T02:18:53.215Z,11.32
2022-12-03T02:21:58.015Z,12.13
2022-12-03T02:24:49.036Z,11.07
2022-12-03T02:27:20.693Z,11.02
2022-12-03T02:32:25.112Z,11.73
2022-12-03T02:34:56.710Z,11.73
2022-12-03T02:37:37.799Z,10.90
2022-12-03T02:40:14.542Z,10.88
2022-12-03T02:42:47.153Z,10.93
2022-12-03T02:45:20.776Z,10.88
2022-12-03T02:48:14.949Z,10.82
2022-12-03T02:50:53.658Z,10.80
2022-12-03T02:53:47.113Z,10.25
2022-12-03T02:56:25.617Z,11.18
2022-12-03T02:59:02.024Z,10.90
2022-12-03T03:01:33.967Z,11.73
2022-12-03T03:06:37.330Z,11.02
2022-12-03T03:09:08.710Z,10.18
2022-12-03T03:11:40.146Z,10.05
2022-12-03T03:14:11.544Z,10.07
2022-12-03T03:16:43.702Z,11.15
2022-12-03T03:19:15.247Z,10.65
2022-12-03T03:21:47.066Z,9.73
2022-12-03T03:24:18.575Z,9.27
2022-12-03T03:26:52.160Z,9.35
2022-12-03T03:29:23.687Z,10.35
2022-12-03T03:31:55.332Z,9.55
2022-12-03T03:34:28.855Z,9.27
2022-12-03T03:37:00.566Z,10.38
2022-12-03T03:39:32.235Z,9.68
2022-12-03T03:42:07.233Z,9.27
2022-12-03T03:44:38.906Z,9.82
2022-12-03T03:47:10.452Z,9.63
2022-12-03T03:49:42.311Z,9.32
2022-12-03T03:54:45.404Z,8.60
2022-12-03T03:57:16.869Z,7.70
2022-12-03T03:59:48.892Z,7.45
2022-12-03T04:02:26.562Z,6.85
2022-12-03T04:04:58.139Z,6.22
2022-12-03T04:07:30.152Z,6.57
2022-12-03T04:12:50.330Z,6.93
2022-12-03T04:15:21.679Z,7.03
2022-12-03T04:18:12.246Z,6.50
2022-12-03T04:20:45.582Z,6.40
2022-12-03T04:23:17.558Z,7.07
2022-12-03T04:26:06.768Z,5.80
2022-12-03T04:28:53.188Z,6.45
2022-12-03T04:31:42.209Z,5.75
2022-12-03T04:34:31.534Z,5.55
2022-12-03T04:37:03.397Z,5.05
2022-12-03T04:39:34.867Z,5.57
2022-12-03T04:42:07.357Z,4.65
2022-12-03T04:44:39.657Z,4.82
2022-12-03T04:47:23.973Z,4.78
2022-12-03T04:49:55.267Z,4.28
2022-12-03T04:52:26.806Z,3.85
2022-12-03T04:54:58.688Z,4.80
2022-12-03T04:57:30.039Z,4.28
2022-12-03T05:00:01.291Z,4.22
2022-12-03T05:02:33.948Z,4.32
2022-12-03T05:05:05.350Z,5.22
2022-12-03T05:07:36.877Z,3.88
2022-12-03T05:10:09.624Z,4.53
2022-12-03T05:15:12.115Z,3.90
2022-12-03T05:20:32.882Z,4.07
2022-12-03T05:23:04.245Z,4.10
2022-12-03T05:25:35.763Z,3.83
2022-12-03T05:28:08.875Z,4.53
2022-12-03T05:30:40.528Z,4.28
2022-12-03T05:33:12.385Z,4.28
2022-12-03T05:35:43.715Z,4.13
2022-12-03T05:38:15.238Z,3.42
2022-12-03T05:40:46.948Z,3.75
2022-12-03T05:43:18.201Z,3.78
2022-12-03T05:45:49.832Z,3.95
2022-12-03T05:48:22.387Z,3.55
2022-12-03T05:50:53.739Z,3.55
2022-12-03T05:53:25.194Z,3.90
2022-12-03T05:55:56.456Z,3.45
2022-12-03T05:58:27.855Z,3.28
2022-12-03T06:00:59.113Z,3.00
2022-12-03T06:03:30.575Z,3.25
2022-12-03T06:06:02.094Z,2.80
2022-12-03T06:08:33.336Z,2.85
2022-12-03T06:11:04.648Z,2.40
2022-12-03T06:13:36.376Z,2.47
2022-12-03T06:16:07.988Z,2.33
2022-12-03T06:18:39.649Z,2.20
2022-12-03T06:21:10.936Z,2.00
2022-12-03T06:23:46.033Z,2.53
2022-12-03T06:26:17.518Z,2.30
2022-12-03T06:28:50.794Z,1.90
2022-12-03T06:31:22.094Z,2.55
2022-12-03T06:33:53.386Z,2.50
2022-12-03T06:36:24.758Z,1.80
2022-12-03T06:38:58.683Z,1.88
2022-12-03T06:41:30.099Z,1.63
2022-12-03T06:44:02.021Z,1.80
2022-12-03T06:46:34.091Z,1.73
2022-12-03T06:49:06.097Z,2.00
2022-12-03T06:54:09.135Z,1.45
2022-12-03T06:56:45.099Z,2.00
2022-12-03T06:59:17.447Z,1.98
2022-12-03T07:01:48.759Z,1.60
2022-12-03T07:04:20.146Z,1.58
2022-12-03T07:06:51.579Z,1.58
2022-12-03T07:09:22.881Z,1.92
2022-12-03T07:14:25.642Z,1.70
2022-12-03T07:19:32.531Z,1.23
2022-12-03T07:22:05.292Z,1.83
2022-12-03T07:24:36.668Z,1.40
2022-12-03T07:27:08.419Z,1.15
2022-12-03T07:29:39.864Z,1.23
2022-12-03T07:32:11.514Z,1.50
2022-12-03T07:34:43.184Z,1.10
2022-12-03T07:37:18.626Z,1.15
2022-12-03T07:39:54.027Z,0.90
2022-12-03T07:42:25.322Z,1.33
2022-12-03T07:44:56.714Z,1.30
2022-12-03T07:47:28.291Z,1.50
2022-12-03T07:49:59.787Z,1.38
2022-12-03T07:52:31.121Z,1.43
2022-12-03T07:55:02.531Z,1.30
2022-12-03T08:00:07.063Z,3.90
2022-12-03T08:02:39.564Z,3.75
2022-12-03T08:05:11.157Z,3.60
2022-12-03T08:07:42.632Z,5.43
2022-12-03T08:10:14.353Z,5.20
2022-12-03T08:12:45.839Z,5.25
2022-12-03T08:15:26.168Z,4.30
2022-12-03T08:18:00.616Z,4.03
2022-12-03T08:20:39.701Z,4.28
2022-12-03T08:23:22.611Z,4.15
2022-12-03T08:25:55.251Z,5.65
2022-12-03T08:28:28.889Z,7.03
2022-12-03T08:31:14.240Z,6.65
2022-12-03T08:33:45.980Z,6.07
2022-12-03T08:36:31.038Z,5.15
2022-12-03T08:39:20.742Z,5.38
2022-12-03T08:42:38.361Z,5.05
2022-12-03T08:45:40.991Z,5.93
2022-12-03T08:48:21.988Z,5.78
2022-12-03T08:50:58.327Z,5.55
2022-12-03T08:53:37.625Z,5.82
2022-12-03T08:56:23.527Z,4.85
2022-12-03T08:58:59.748Z,5.15
2022-12-03T09:01:34.129Z,6.22
2022-12-03T09:04:40.720Z,5.28
2022-12-03T09:07:12.715Z,5.22
2022-12-03T09:12:15.581Z,4.88
2022-12-03T09:14:46.994Z,5.80
2022-12-03T09:17:20.533Z,7.03
2022-12-03T09:19:52.553Z,6.25
2022-12-03T09:24:55.676Z,6.03
2022-12-03T09:27:27.532Z,4.28
2022-12-03T09:29:59.287Z,3.72
2022-12-03T09:32:30.835Z,2.95
2022-12-03T09:35:11.168Z,3.58
2022-12-03T09:37:42.731Z,5.82
2022-12-03T09:40:15.231Z,6.03
2022-12-03T09:42:47.350Z,5.07
2022-12-03T09:45:19.664Z,3.80
2022-12-03T09:47:52.908Z,3.95
2022-12-03T09:50:28.586Z,5.07
2022-12-03T09:53:04.374Z,4.10
2022-12-03T09:55:36.215Z,5.28
2022-12-03T09:58:16.571Z,3.97
2022-12-03T10:00:53.868Z,5.72
2022-12-03T10:03:30.150Z,5.15
2022-12-03T10:06:01.730Z,5.18
2022-12-03T10:08:34.480Z,4.60
2022-12-03T10:11:06.378Z,4.97
2022-12-03T10:16:20.521Z,3.72
2022-12-03T10:18:58.553Z,3.28
2022-12-03T10:21:33.711Z,3.70
2022-12-03T10:24:20.636Z,3.30
2022-12-03T10:26:54.030Z,3.13
2022-12-03T10:29:33.600Z,4.30
2022-12-03T10:32:08.950Z,4.70
2022-12-03T10:34:42.956Z,4.60
2022-12-03T10:37:22.097Z,4.97
2022-12-03T10:40:02.499Z,4.95
2022-12-03T10:42:36.475Z,3.97
2022-12-03T10:45:19.510Z,3.95
2022-12-03T10:48:06.237Z,4.60
2022-12-03T10:50:39.392Z,4.63
2022-12-03T10:53:11.904Z,3.90
2022-12-03T10:55:46.200Z,4.82
2022-12-03T10:58:22.785Z,4.82
2022-12-03T11:00:56.895Z,5.43
2022-12-03T11:03:31.590Z,5.38
2022-12-03T11:06:04.529Z,5.07
2022-12-03T11:08:39.231Z,5.45
2022-12-03T11:11:20.218Z,4.80
2022-12-03T11:13:57.382Z,5.30
2022-12-03T11:16:44.395Z,5.78
2022-12-03T11:19:19.308Z,6.25
2022-12-03T11:22:12.102Z,5.18
2022-12-03T11:24:43.700Z,5.18
2022-12-03T11:27:15.104Z,5.65
2022-12-03T11:29:57.913Z,5.40
2022-12-03T11:32:41.915Z,5.60
2022-12-03T11:35:38.573Z,4.68
2022-12-03T11:38:50.720Z,4.07
2022-12-03T11:41:36.552Z,3.85
2022-12-03T11:44:30.197Z,3.75
2022-12-03T11:47:03.261Z,3.83
2022-12-03T11:49:39.754Z,3.80
2022-12-03T11:52:34.640Z,3.92
2022-12-03T11:55:36.277Z,3.40
2022-12-03T11:58:24.996Z,3.40
2022-12-03T12:00:59.717Z,2.92
2022-12-03T12:03:44.469Z,2.83
2022-12-03T12:06:22.178Z,2.85
2022-12-03T12:08:55.303Z,3.15
2022-12-03T12:11:38.499Z,3.17
2022-12-03T12:14:12.963Z,3.00
2022-12-03T12:16:56.617Z,2.60
2022-12-03T12:19:46.467Z,2.65
2022-12-03T12:22:22.673Z,2.50
2022-12-03T12:24:59.073Z,2.72
2022-12-03T12:27:55.226Z,2.90
2022-12-03T12:30:26.878Z,2.70
2022-12-03T12:33:25.365Z,3.05
2022-12-03T12:35:56.802Z,2.97
2022-12-03T12:38:30.062Z,2.90
2022-12-03T12:41:08.684Z,2.55
2022-12-03T12:43:41.323Z,2.65
2022-12-03T12:49:17.184Z,2.45
2022-12-03T12:51:50.950Z,2.45
2022-12-03T12:54:22.547Z,1.98
2022-12-03T12:56:54.629Z,2.25
2022-12-03T12:59:25.984Z,1.70
2022-12-03T13:01:57.929Z,1.67
2022-12-03T13:04:32.143Z,1.70
2022-12-03T13:07:03.885Z,1.42
2022-12-03T13:09:35.446Z,1.58
2022-12-03T13:12:09.009Z,1.58
2022-12-03T13:14:40.757Z,1.20
2022-12-03T13:17:26.119Z,1.10
2022-12-03T13:20:07.283Z,0.90
2022-12-03T13:22:39.456Z,1.10
2022-12-03T13:25:59.302Z,1.00
2022-12-03T13:28:32.396Z,1.50
2022-12-03T13:31:25.986Z,0.98
2022-12-03T13:33:59.107Z,0.98
2022-12-03T13:36:41.380Z,1.25
2022-12-03T13:39:23.375Z,0.88
2022-12-03T13:42:13.669Z,1.10
2022-12-03T13:44:50.833Z,1.25
2022-12-03T13:47:24.477Z,1.08
2022-12-03T13:50:14.284Z,1.05
2022-12-03T13:52:45.663Z,1.30
2022-12-03T13:55:29.363Z,1.33
2022-12-03T13:58:01.343Z,1.00
2022-12-03T14:00:33.871Z,1.38
2022-12-03T14:03:06.094Z,1.10
2022-12-03T14:05:37.852Z,1.10
2022-12-03T14:08:09.234Z,1.10
2022-12-03T14:10:40.606Z,0.88
2022-12-03T14:13:11.916Z,1.00
2022-12-03T14:15:43.314Z,1.07
2022-12-03T14:18:14.591Z,1.30
2022-12-03T14:20:46.200Z,1.00
2022-12-03T14:23:18.997Z,1.30
2022-12-03T14:25:50.419Z,1.07
2022-12-03T14:30:52.761Z,1.00
2022-12-03T14:33:24.091Z,0.93
2022-12-03T14:35:57.528Z,1.02
2022-12-03T14:38:28.972Z,0.98
2022-12-03T14:41:00.276Z,0.82
2022-12-03T14:43:31.687Z,1.10
2022-12-03T14:46:03.553Z,1.20
2022-12-03T14:48:35.158Z,1.00
2022-12-03T14:51:06.642Z,0.80
2022-12-03T14:53:37.970Z,0.80
2022-12-03T14:56:09.235Z,0.97
2022-12-03T14:58:40.910Z,1.30
2022-12-03T15:01:12.383Z,0.80
2022-12-03T15:03:43.921Z,0.80
2022-12-03T15:06:15.243Z,0.85
2022-12-03T15:08:46.746Z,1.00
2022-12-03T15:11:18.271Z,0.73
2022-12-03T15:13:49.570Z,1.10
2022-12-03T15:16:21.293Z,0.50
2022-12-03T15:21:23.903Z,0.70
2022-12-03T15:23:55.323Z,0.75
2022-12-03T15:26:26.814Z,0.90
2022-12-03T15:28:58.682Z,0.60
2022-12-03T15:31:30.901Z,0.40
2022-12-03T15:34:03.052Z,0.50
2022-12-03T15:36:34.632Z,0.50
2022-12-03T15:39:06.640Z,0.43
2022-12-03T15:41:38.386Z,0.50
2022-12-03T15:44:09.747Z,0.50
2022-12-03T15:46:41.138Z,0.40
2022-12-03T15:49:12.573Z,0.40
2022-12-03T15:51:43.873Z,0.80
2022-12-03T15:54:15.645Z,0.40
2022-12-03T15:56:46.904Z,0.50
2022-12-03T15:59:18.527Z,0.40
2022-12-03T16:01:50.324Z,0.60
2022-12-03T16:04:21.728Z,0.60
2022-12-03T16:06:53.214Z,0.50
2022-12-03T16:11:59.031Z,0.57
2022-12-03T16:14:30.395Z,0.50
2022-12-03T16:17:01.748Z,0.57
2022-12-03T16:19:33.080Z,0.50
2022-12-03T16:22:05.250Z,0.50
2022-12-03T16:24:36.683Z,0.75
2022-12-03T16:27:08.400Z,0.55
2022-12-03T16:29:40.271Z,0.95
2022-12-03T16:32:11.630Z,0.50
2022-12-03T16:34:42.894Z,0.83
2022-12-03T16:37:14.361Z,0.67
2022-12-03T16:39:52.389Z,0.60
2022-12-03T16:42:25.636Z,0.57
2022-12-03T16:45:06.419Z,0.80
2022-12-03T16:47:38.967Z,0.60
2022-12-03T16:50:17.936Z,0.60
2022-12-03T16:52:52.313Z,0.73
2022-12-03T16:55:23.674Z,0.90
2022-12-03T16:57:55.032Z,0.70
2022-12-03T17:00:27.905Z,0.70
2022-12-03T17:02:59.334Z,0.50
2022-12-03T17:05:31.066Z,0.63
2022-12-03T17:10:45.336Z,0.60
2022-12-03T17:13:17.340Z,0.40
2022-12-03T17:15:48.694Z,0.50
2022-12-03T17:18:20.160Z,0.50
2022-12-03T17:20:51.354Z,0.40
2022-12-03T17:23:22.699Z,0.50
2022-12-03T17:25:54.037Z,0.60
2022-12-03T17:28:25.880Z,0.50
2022-12-03T17:30:57.258Z,0.50
2022-12-03T17:33:29.214Z,0.68
2022-12-03T17:36:00.608Z,0.60
2022-12-03T17:38:37.337Z,0.50
2022-12-03T17:41:10.376Z,0.40
2022-12-03T17:43:41.642Z,0.50
2022-12-03T17:46:13.018Z,0.67
2022-12-03T17:48:44.333Z,0.50
2022-12-03T17:51:15.698Z,0.60
2022-12-03T17:53:47.371Z,0.50
2022-12-03T17:56:18.800Z,0.43
2022-12-03T17:58:50.050Z,0.50
2022-12-03T18:01:21.449Z,0.90
2022-12-03T18:03:52.739Z,0.40
2022-12-03T18:06:25.441Z,0.50
2022-12-03T18:08:56.796Z,0.43
2022-12-03T18:11:28.058Z,0.40
2022-12-03T18:14:00.093Z,0.40
2022-12-03T18:16:33.084Z,0.45
2022-12-03T18:19:06.378Z,0.50
2022-12-03T18:21:38.173Z,0.55
2022-12-03T18:24:10.003Z,0.45
2022-12-03T18:26:41.334Z,0.50
2022-12-03T18:29:12.642Z,0.80
2022-12-03T18:31:44.061Z,0.90
2022-12-03T18:34:15.406Z,0.55
2022-12-03T18:36:47.406Z,0.80
2022-12-03T18:39:35.462Z,0.73
2022-12-03T18:42:20.269Z,0.80
2022-12-03T18:44:53.281Z,0.70
2022-12-03T18:47:28.701Z,0.82
2022-12-03T18:50:00.136Z,0.70
2022-12-03T18:52:32.247Z,1.02
2022-12-03T18:55:03.745Z,0.70
2022-12-03T18:57:35.016Z,1.10
2022-12-03T19:00:13.488Z,0.77
2022-12-03T19:03:02.639Z,0.90
2022-12-03T19:05:36.779Z,0.98
2022-12-03T19:08:15.613Z,1.70
2022-12-03T19:10:56.589Z,1.10
2022-12-03T19:13:29.530Z,0.95
2022-12-03T19:16:04.930Z,1.15
2022-12-03T19:18:36.701Z,1.05
2022-12-03T19:21:10.409Z,1.10
2022-12-03T19:23:47.333Z,1.58
2022-12-03T19:26:30.610Z,1.35
2022-12-03T19:29:02.319Z,1.42
2022-12-03T19:31:35.254Z,1.35
2022-12-03T19:34:06.574Z,1.40
2022-12-03T19:36:38.471Z,1.58
2022-12-03T19:39:09.697Z,1.40
2022-12-03T19:41:43.270Z,1.67
2022-12-03T19:44:18.785Z,1.67
2022-12-03T19:46:52.308Z,2.08
2022-12-03T19:49:24.192Z,1.88
2022-12-03T19:51:55.593Z,1.73
2022-12-03T19:54:26.912Z,1.87
2022-12-03T19:56:58.189Z,1.73
2022-12-03T19:59:29.460Z,2.40
2022-12-03T20:02:00.945Z,2.07
2022-12-03T20:04:32.480Z,1.80
2022-12-03T20:07:04.209Z,1.95
2022-12-03T20:09:35.558Z,1.80
2022-12-03T20:12:06.996Z,2.23
2022-12-03T20:14:38.370Z,1.80
2022-12-03T20:17:10.330Z,2.10
2022-12-03T20:19:41.624Z,1.70
2022-12-03T20:22:12.827Z,2.10
2022-12-03T20:24:44.144Z,2.42
2022-12-03T20:27:19.617Z,1.77
2022-12-03T20:29:54.128Z,1.80
2022-12-03T20:32:26.370Z,2.13
2022-12-03T20:34:57.666Z,2.20
2022-12-03T20:37:28.935Z,1.83
2022-12-03T20:40:00.314Z,2.08
2022-12-03T20:42:31.585Z,2.43
2022-12-03T20:45:03.461Z,1.45
2022-12-03T20:47:34.805Z,1.90
2022-12-03T20:50:06.609Z,2.10
2022-12-03T20:55:09.190Z,1.70
2022-12-03T20:57:40.456Z,2.10
2022-12-03T21:00:12.075Z,2.23
2022-12-03T21:02:43.629Z,1.90
2022-12-03T21:05:15.021Z,1.93
2022-12-03T21:07:46.577Z,2.10
2022-12-03T21:10:36.271Z,2.15
2022-12-03T21:13:08.110Z,1.70
2022-12-03T21:15:39.461Z,1.92
2022-12-03T21:18:13.187Z,1.90
2022-12-03T21:20:49.666Z,1.73
2022-12-03T21:23:21.031Z,1.83
2022-12-03T21:25:52.371Z,2.27
2022-12-03T21:28:24.165Z,1.90
2022-12-03T21:30:55.669Z,1.73
2022-12-03T21:33:26.969Z,1.75
2022-12-03T21:35:58.945Z,2.27
2022-12-03T21:38:31.457Z,2.22
2022-12-03T21:41:03.576Z,2.55
2022-12-03T21:43:35.589Z,2.25
2022-12-03T21:47:10.773Z,2.35
2022-12-03T21:49:03.353Z,2.45
2022-12-03T21:51:34.977Z,1.95
2022-12-03T21:54:06.359Z,2.65
2022-12-03T21:56:37.668Z,2.13
2022-12-03T21:59:08.925Z,2.67
2022-12-03T22:01:45.562Z,2.35
2022-12-03T22:04:18.472Z,2.78
2022-12-03T22:06:49.877Z,2.63
2022-12-03T22:09:26.284Z,2.70
2022-12-03T22:12:00.718Z,3.10
2022-12-03T22:14:32.967Z,2.40
2022-12-03T22:17:04.349Z,3.00
2022-12-03T22:19:35.881Z,2.90
2022-12-03T22:22:07.121Z,3.03
2022-12-03T22:24:38.378Z,2.92
2022-12-03T22:27:09.836Z,2.77
2022-12-03T22:29:41.146Z,2.70
2022-12-03T22:32:13.067Z,3.03
2022-12-03T22:34:44.861Z,3.00
2022-12-03T22:39:47.100Z,2.40
2022-12-03T22:42:18.336Z,3.23
2022-12-03T22:44:49.675Z,3.17
2022-12-03T22:47:21.252Z,2.70
2022-12-03T22:49:52.789Z,3.28
2022-12-03T22:52:24.275Z,3.55
2022-12-03T22:54:55.720Z,3.20
2022-12-03T22:57:27.040Z,3.23
2022-12-03T22:59:58.329Z,3.40
2022-12-03T23:02:29.707Z,3.17
2022-12-03T23:05:01.266Z,3.40
2022-12-03T23:07:32.617Z,3.75
2022-12-03T23:10:04.628Z,4.03
2022-12-03T23:12:35.919Z,3.63
2022-12-03T23:15:08.823Z,3.75
2022-12-03T23:17:40.101Z,3.00
2022-12-03T23:20:12.144Z,3.10
2022-12-03T23:22:43.509Z,3.35
2022-12-03T23:25:14.984Z,3.47
2022-12-03T23:27:47.264Z,3.40
2022-12-03T23:30:19.341Z,3.33
2022-12-03T23:32:50.656Z,3.38
2022-12-03T23:35:21.991Z,3.90
2022-12-03T23:37:53.210Z,3.47
2022-12-03T23:40:24.696Z,3.80
2022-12-03T23:42:55.942Z,3.43
2022-12-03T23:45:27.804Z,3.55
2022-12-03T23:47:58.979Z,4.03
2022-12-03T23:50:30.972Z,4.65
2022-12-03T23:53:02.259Z,6.82
2022-12-03T23:55:33.665Z,8.93
2022-12-03T23:58:05.344Z,10.15
